createdAt,value
2022-11-13T00:00:00.839Z,1.13
2022-11-13T00:03:03.096Z,0.50
2022-11-13T00:06:05.215Z,0.80
2022-11-13T00:09:07.835Z,0.60
2022-11-13T00:12:09.759Z,0.60
2022-11-13T00:15:12.903Z,0.40
2022-11-13T00:18:14.750Z,0.53
2022-11-13T00:21:23.290Z,0.40
2022-11-13T00:24:25.240Z,0.50
2022-11-13T00:27:27.130Z,0.50
2022-11-13T00:30:29.003Z,0.43
2022-11-13T00:34:01.840Z,0.60
2022-11-13T00:36:53.805Z,0.40
2022-11-13T00:39:59.506Z,0.60
2022-11-13T00:43:01.841Z,0.80
2022-11-13T00:46:04.565Z,1.17
2022-11-13T00:49:06.455Z,0.50
2022-11-13T00:52:08.420Z,0.70
2022-11-13T00:55:10.220Z,0.50
2022-11-13T00:58:16.008Z,0.57
2022-11-13T01:01:19.648Z,0.60
2022-11-13T01:04:21.545Z,0.53
2022-11-13T01:07:23.470Z,0.50
2022-11-13T01:10:26.055Z,0.60
2022-11-13T01:13:27.802Z,0.50
2022-11-13T01:16:29.722Z,0.60
2022-11-13T01:19:31.552Z,0.50
2022-11-13T01:22:33.478Z,0.50
2022-11-13T01:25:35.325Z,0.40
2022-11-13T01:28:38.210Z,0.80
2022-11-13T01:31:39.994Z,0.90
2022-11-13T01:34:41.897Z,0.70
2022-11-13T01:37:43.756Z,0.80
2022-11-13T01:40:47.609Z,0.30
2022-11-13T01:43:49.638Z,0.50
2022-11-13T01:46:55.740Z,0.70
2022-11-13T01:49:59.461Z,0.60
2022-11-13T01:53:01.354Z,0.50
2022-11-13T01:56:03.603Z,0.43
2022-11-13T01:59:12.291Z,0.70
2022-11-13T02:02:14.941Z,0.30
2022-11-13T02:05:16.809Z,0.40
2022-11-13T02:08:18.815Z,0.40
2022-11-13T02:11:21.317Z,0.50
2022-11-13T02:14:27.109Z,0.50
2022-11-13T02:17:31.971Z,0.40
2022-11-13T02:20:43.166Z,0.70
2022-11-13T02:24:17.189Z,0.40
2022-11-13T02:27:34.726Z,0.60
2022-11-13T02:30:37.476Z,0.80
2022-11-13T02:33:39.785Z,0.80
2022-11-13T02:36:41.724Z,0.80
2022-11-13T02:39:43.926Z,0.80
2022-11-13T02:42:45.720Z,1.00
2022-11-13T02:45:48.216Z,0.93
2022-11-13T02:48:50.223Z,0.77
2022-11-13T02:51:52.451Z,1.60
2022-11-13T02:54:54.654Z,1.20
2022-11-13T02:57:56.564Z,1.90
2022-11-13T03:00:58.367Z,1.57
2022-11-13T03:04:00.706Z,1.70
2022-11-13T03:07:05.035Z,1.70
2022-11-13T03:10:08.832Z,2.00
2022-11-13T03:13:10.666Z,1.60
2022-11-13T03:16:15.482Z,1.90
2022-11-13T03:19:17.359Z,1.93
2022-11-13T03:22:19.976Z,2.77
2022-11-13T03:25:21.815Z,2.50
2022-11-13T03:28:23.704Z,2.47
2022-11-13T03:31:25.505Z,2.23
2022-11-13T03:34:27.410Z,2.30
2022-11-13T03:37:29.195Z,2.20
2022-11-13T03:40:31.089Z,2.10
2022-11-13T03:43:32.927Z,1.27
2022-11-13T03:46:34.825Z,1.07
2022-11-13T03:49:37.539Z,0.90
2022-11-13T03:52:39.818Z,0.70
2022-11-13T03:55:42.654Z,0.33
2022-11-13T03:58:49.322Z,0.60
2022-11-13T04:01:51.563Z,0.47
2022-11-13T04:04:53.509Z,0.30
2022-11-13T04:07:55.387Z,0.47
2022-11-13T04:11:06.679Z,0.70
2022-11-13T04:14:08.465Z,0.53
2022-11-13T04:17:10.325Z,0.60
2022-11-13T04:20:12.736Z,0.50
2022-11-13T04:23:16.120Z,0.50
2022-11-13T04:26:17.885Z,0.80
2022-11-13T04:29:19.734Z,0.70
2022-11-13T04:32:21.604Z,0.70
2022-11-13T04:35:23.468Z,0.43
2022-11-13T04:38:25.453Z,0.50
2022-11-13T04:41:48.992Z,0.83
2022-11-13T04:44:54.409Z,0.63
2022-11-13T04:47:56.756Z,0.70
2022-11-13T04:50:58.525Z,0.53
2022-11-13T04:54:00.810Z,0.50
2022-11-13T04:57:02.721Z,0.40
2022-11-13T05:00:06.578Z,0.47
2022-11-13T05:03:08.428Z,0.43
2022-11-13T05:06:10.868Z,0.40
2022-11-13T05:09:12.838Z,0.43
2022-11-13T05:12:15.036Z,0.60
2022-11-13T05:15:16.958Z,0.57
2022-11-13T05:18:18.801Z,0.50
2022-11-13T05:21:20.594Z,0.40
2022-11-13T05:24:22.494Z,0.43
2022-11-13T05:27:24.398Z,0.40
2022-11-13T05:30:26.903Z,0.30
2022-11-13T05:33:29.141Z,0.50
2022-11-13T05:36:31.098Z,0.70
2022-11-13T05:39:32.961Z,0.50
2022-11-13T05:42:34.938Z,0.40
2022-11-13T05:45:36.764Z,0.37
2022-11-13T05:48:39.232Z,0.43
2022-11-13T05:51:41.048Z,0.53
2022-11-13T05:54:42.873Z,0.30
2022-11-13T05:57:44.692Z,1.50
2022-11-13T06:00:46.823Z,1.20
2022-11-13T06:03:50.013Z,1.33
2022-11-13T06:06:52.999Z,1.00
2022-11-13T06:09:54.797Z,0.93
2022-11-13T06:12:56.699Z,0.70
2022-11-13T06:16:10.573Z,0.80
2022-11-13T06:19:24.803Z,0.67
2022-11-13T06:22:27.873Z,0.40
2022-11-13T06:25:30.873Z,0.60
2022-11-13T06:28:33.510Z,0.60
2022-11-13T06:31:36.893Z,0.30
2022-11-13T06:34:38.696Z,0.50
2022-11-13T06:37:40.803Z,0.70
2022-11-13T06:40:42.624Z,1.17
2022-11-13T06:43:44.923Z,0.83
2022-11-13T06:46:46.744Z,1.30
2022-11-13T06:49:49.130Z,1.50
2022-11-13T06:52:50.946Z,1.50
2022-11-13T06:55:52.848Z,1.00
2022-11-13T06:58:56.349Z,1.40
2022-11-13T07:01:58.744Z,0.80
2022-11-13T07:05:00.789Z,0.83
2022-11-13T07:08:02.618Z,0.90
2022-11-13T07:11:04.492Z,0.90
2022-11-13T07:14:07.092Z,0.80
2022-11-13T07:17:10.345Z,0.80
2022-11-13T07:20:12.475Z,0.50
2022-11-13T07:23:14.319Z,0.83
2022-11-13T07:26:16.566Z,1.70
2022-11-13T07:29:18.346Z,2.00
2022-11-13T07:32:20.241Z,1.70
2022-11-13T07:35:22.180Z,1.00
2022-11-13T07:38:24.289Z,1.07
2022-11-13T07:41:26.116Z,0.70
2022-11-13T07:44:52.911Z,0.70
2022-11-13T07:47:50.056Z,1.20
2022-11-13T07:50:52.137Z,1.10
2022-11-13T07:53:53.925Z,1.50
2022-11-13T07:56:56.330Z,1.10
2022-11-13T07:59:58.241Z,0.67
2022-11-13T08:03:09.029Z,0.40
2022-11-13T08:06:10.956Z,0.30
2022-11-13T08:09:12.743Z,0.40
2022-11-13T08:12:14.590Z,0.37
2022-11-13T08:15:16.482Z,0.50
2022-11-13T08:18:18.344Z,0.40
2022-11-13T08:21:21.436Z,0.80
2022-11-13T08:24:23.831Z,1.00
2022-11-13T08:27:25.706Z,2.20
2022-11-13T08:30:28.504Z,2.97
2022-11-13T08:33:30.667Z,3.00
2022-11-13T08:36:32.527Z,2.73
2022-11-13T08:39:35.675Z,2.63
2022-11-13T08:42:37.640Z,1.80
2022-11-13T08:45:39.422Z,1.90
2022-11-13T08:48:41.793Z,2.13
2022-11-13T08:51:44.144Z,1.80
2022-11-13T08:54:46.105Z,1.43
2022-11-13T08:57:47.990Z,1.77
2022-11-13T09:00:49.947Z,2.10
2022-11-13T09:03:51.868Z,1.70
2022-11-13T09:06:54.090Z,1.40
2022-11-13T09:09:55.960Z,1.40
2022-11-13T09:13:02.804Z,1.90
2022-11-13T09:16:05.063Z,1.30
2022-11-13T09:19:07.340Z,0.90
2022-11-13T09:22:09.275Z,1.70
2022-11-13T09:25:11.164Z,1.70
2022-11-13T09:28:13.334Z,2.23
2022-11-13T09:31:16.480Z,2.87
2022-11-13T09:34:18.348Z,2.23
2022-11-13T09:37:20.711Z,1.70
2022-11-13T09:40:30.003Z,1.57
2022-11-13T09:43:41.401Z,1.57
2022-11-13T09:46:48.193Z,1.60
2022-11-13T09:49:54.465Z,3.67
2022-11-13T09:52:56.378Z,1.80
2022-11-13T09:56:16.779Z,1.40
2022-11-13T09:59:32.229Z,1.50
2022-11-13T10:03:07.482Z,1.30
2022-11-13T10:06:28.463Z,1.20
2022-11-13T10:09:35.646Z,1.83
2022-11-13T10:12:39.155Z,2.30
2022-11-13T10:15:43.747Z,1.80
2022-11-13T10:18:47.308Z,1.60
2022-11-13T10:22:07.674Z,1.60
2022-11-13T10:25:20.920Z,2.17
2022-11-13T10:31:51.744Z,2.00
2022-11-13T10:35:22.767Z,2.00
2022-11-13T10:38:44.633Z,2.20
2022-11-13T10:41:52.684Z,2.73
2022-11-13T10:44:59.720Z,3.13
2022-11-13T10:48:04.700Z,2.27
2022-11-13T10:51:24.134Z,2.70
2022-11-13T10:54:31.647Z,1.90
2022-11-13T10:57:35.012Z,2.03
2022-11-13T11:00:39.083Z,2.47
2022-11-13T11:03:49.739Z,2.50
2022-11-13T11:10:36.471Z,2.20
2022-11-13T11:13:38.719Z,2.20
2022-11-13T11:16:41.069Z,2.23
2022-11-13T11:19:45.235Z,1.80
2022-11-13T11:22:57.876Z,2.50
2022-11-13T11:26:40.083Z,2.10
2022-11-13T11:29:48.928Z,1.73
2022-11-13T11:32:57.026Z,2.00
2022-11-13T11:36:16.460Z,1.90
2022-11-13T11:40:08.645Z,2.33
2022-11-13T11:43:39.779Z,1.70
2022-11-13T11:46:46.436Z,1.70
2022-11-13T11:49:48.649Z,1.80
2022-11-13T11:52:59.949Z,1.77
2022-11-13T11:56:15.730Z,1.73
2022-11-13T11:59:31.841Z,1.83
2022-11-13T12:02:47.197Z,2.30
2022-11-13T12:06:16.635Z,1.37
2022-11-13T12:09:31.422Z,0.90
2022-11-13T12:12:45.262Z,1.03
2022-11-13T12:16:01.375Z,1.40
2022-11-13T12:19:23.387Z,0.87
2022-11-13T12:23:02.625Z,1.10
2022-11-13T12:26:05.120Z,1.10
2022-11-13T12:29:32.391Z,0.90
2022-11-13T12:33:11.612Z,1.60
2022-11-13T12:36:14.010Z,1.23
2022-11-13T12:39:28.819Z,1.00
2022-11-13T12:42:44.861Z,1.50
2022-11-13T12:45:56.193Z,2.13
2022-11-13T12:48:58.091Z,1.47
2022-11-13T12:52:05.739Z,1.23
2022-11-13T12:55:24.756Z,0.90
2022-11-13T12:58:31.723Z,1.17
2022-11-13T13:01:42.795Z,0.80
2022-11-13T13:05:08.840Z,0.67
2022-11-13T13:08:32.244Z,1.20
2022-11-13T13:11:37.387Z,0.80
2022-11-13T13:14:55.395Z,1.00
2022-11-13T13:18:04.280Z,0.83
2022-11-13T13:21:09.924Z,0.90
2022-11-13T13:24:31.579Z,0.83
2022-11-13T13:27:38.198Z,0.93
2022-11-13T13:31:01.480Z,0.80
2022-11-13T13:34:35.219Z,0.90
2022-11-13T13:37:53.083Z,1.10
2022-11-13T13:41:13.087Z,1.10
2022-11-13T13:44:51.729Z,0.87
2022-11-13T13:47:55.466Z,0.87
2022-11-13T13:50:59.999Z,1.13
2022-11-13T13:54:05.499Z,1.10
2022-11-13T13:57:14.826Z,1.17
2022-11-13T14:00:18.704Z,1.27
2022-11-13T14:03:22.166Z,1.00
2022-11-13T14:06:24.806Z,0.97
2022-11-13T14:09:29.281Z,1.30
2022-11-13T14:12:31.247Z,1.10
2022-11-13T14:15:36.012Z,1.30
2022-11-13T14:18:37.906Z,1.20
2022-11-13T14:21:39.855Z,1.30
2022-11-13T14:24:55.018Z,1.27
2022-11-13T14:27:56.926Z,1.20
2022-11-13T14:31:09.943Z,1.10
2022-11-13T14:34:16.955Z,1.30
2022-11-13T14:37:35.166Z,1.47
2022-11-13T14:40:39.391Z,3.43
2022-11-13T14:43:49.213Z,1.50
2022-11-13T14:47:00.504Z,1.30
2022-11-13T14:50:20.859Z,1.60
2022-11-13T14:53:32.361Z,1.40
2022-11-13T14:56:43.807Z,1.10
2022-11-13T14:59:46.326Z,1.30
2022-11-13T15:02:48.155Z,1.53
2022-11-13T15:05:50.755Z,1.40
2022-11-13T15:08:56.468Z,1.30
2022-11-13T15:11:58.480Z,1.30
2022-11-13T15:15:00.352Z,1.33
2022-11-13T15:18:02.852Z,1.40
2022-11-13T15:21:05.476Z,1.60
2022-11-13T15:24:07.749Z,1.57
2022-11-13T15:27:14.055Z,1.00
2022-11-13T15:30:16.545Z,1.20
2022-11-13T15:33:18.498Z,1.40
2022-11-13T15:36:20.497Z,1.67
2022-11-13T15:39:24.120Z,1.20
2022-11-13T15:42:31.602Z,1.10
2022-11-13T15:45:33.469Z,1.20
2022-11-13T15:48:35.466Z,1.63
2022-11-13T15:51:43.849Z,1.60
2022-11-13T15:54:46.035Z,3.97
2022-11-13T15:57:48.810Z,2.70
2022-11-13T16:00:50.696Z,3.17
2022-11-13T16:03:52.558Z,2.30
2022-11-13T16:06:54.485Z,3.60
2022-11-13T16:09:56.382Z,3.20
2022-11-13T16:12:58.711Z,2.93
2022-11-13T16:16:01.091Z,3.93
2022-11-13T16:19:09.154Z,4.27
2022-11-13T16:22:22.925Z,3.37
2022-11-13T16:25:26.136Z,4.23
2022-11-13T16:28:31.383Z,4.27
2022-11-13T16:31:33.764Z,5.20
2022-11-13T16:34:35.609Z,4.27
2022-11-13T16:37:37.769Z,4.00
2022-11-13T16:40:41.775Z,3.13
2022-11-13T16:43:44.771Z,4.53
2022-11-13T16:46:48.029Z,6.20
2022-11-13T16:49:50.469Z,13.53
2022-11-13T16:52:52.237Z,11.37
2022-11-13T16:55:54.104Z,6.13
2022-11-13T16:58:59.161Z,4.50
2022-11-13T17:02:01.313Z,5.03
2022-11-13T17:05:04.641Z,4.33
2022-11-13T17:08:06.984Z,6.70
2022-11-13T17:11:12.114Z,5.80
2022-11-13T17:14:14.250Z,5.23
2022-11-13T17:17:16.147Z,4.53
2022-11-13T17:20:19.670Z,4.70
2022-11-13T17:23:21.620Z,4.30
2022-11-13T17:26:25.869Z,4.07
2022-11-13T17:29:28.019Z,5.10
2022-11-13T17:32:30.974Z,4.70
2022-11-13T17:35:32.828Z,3.80
2022-11-13T17:38:35.566Z,3.60
2022-11-13T17:41:38.255Z,4.30
2022-11-13T17:44:40.251Z,3.70
2022-11-13T17:47:42.104Z,2.70
2022-11-13T17:50:44.615Z,2.53
2022-11-13T17:53:46.460Z,3.47
2022-11-13T17:56:48.689Z,2.80
2022-11-13T17:59:50.501Z,2.10
2022-11-13T18:02:52.666Z,1.80
2022-11-13T18:05:55.000Z,1.27
2022-11-13T18:08:56.920Z,0.93
2022-11-13T18:12:00.292Z,0.80
2022-11-13T18:15:02.356Z,0.83
2022-11-13T18:18:06.113Z,1.27
2022-11-13T18:21:22.533Z,0.93
2022-11-13T18:24:25.126Z,0.80
2022-11-13T18:27:27.100Z,1.13
2022-11-13T18:30:28.945Z,1.10
2022-11-13T18:33:32.630Z,1.40
2022-11-13T18:36:35.101Z,0.90
2022-11-13T18:39:37.011Z,1.00
2022-11-13T18:42:40.212Z,0.80
2022-11-13T18:45:44.511Z,1.03
2022-11-13T18:48:47.616Z,0.97
2022-11-13T18:51:49.755Z,1.30
2022-11-13T18:54:52.174Z,1.07
2022-11-13T18:57:54.413Z,1.17
2022-11-13T19:00:56.826Z,0.90
2022-11-13T19:04:22.128Z,1.20
2022-11-13T19:07:24.977Z,1.20
2022-11-13T19:10:27.836Z,1.07
2022-11-13T19:13:29.651Z,1.00
2022-11-13T19:16:34.670Z,1.10
2022-11-13T19:19:36.577Z,1.30
2022-11-13T19:22:38.477Z,1.03
2022-11-13T19:25:40.570Z,1.43
2022-11-13T19:28:43.000Z,1.10
2022-11-13T19:31:46.826Z,1.20
2022-11-13T19:34:49.436Z,1.20
2022-11-13T19:37:57.862Z,1.07
2022-11-13T19:41:01.476Z,2.03
2022-11-13T19:44:03.367Z,1.30
2022-11-13T19:47:05.540Z,1.10
2022-11-13T19:50:08.098Z,1.03
2022-11-13T19:53:10.049Z,1.40
2022-11-13T19:56:14.538Z,0.90
2022-11-13T19:59:17.060Z,1.27
2022-11-13T20:02:20.187Z,1.30
2022-11-13T20:05:22.389Z,1.03
2022-11-13T20:08:27.924Z,2.70
2022-11-13T20:11:30.976Z,1.73
2022-11-13T20:14:38.043Z,2.70
2022-11-13T20:17:40.622Z,1.60
2022-11-13T20:20:49.108Z,2.30
2022-11-13T20:23:56.722Z,1.80
2022-11-13T20:26:58.557Z,1.50
2022-11-13T20:30:05.705Z,1.40
2022-11-13T20:33:08.032Z,1.63
2022-11-13T20:36:10.239Z,1.73
2022-11-13T20:39:12.165Z,1.50
2022-11-13T20:42:14.473Z,1.30
2022-11-13T20:45:17.020Z,1.40
2022-11-13T20:48:21.506Z,1.83
2022-11-13T20:51:26.541Z,2.40
2022-11-13T20:54:28.668Z,2.00
2022-11-13T20:57:31.210Z,2.00
2022-11-13T21:00:33.291Z,1.63
2022-11-13T21:03:41.192Z,1.57
2022-11-13T21:06:44.123Z,1.77
2022-11-13T21:09:48.934Z,1.63
2022-11-13T21:12:52.680Z,2.03
2022-11-13T21:15:54.765Z,1.77
2022-11-13T21:18:59.813Z,2.57
2022-11-13T21:22:03.402Z,1.60
2022-11-13T21:25:06.473Z,1.60
2022-11-13T21:28:09.052Z,1.80
2022-11-13T21:31:15.970Z,1.97
2022-11-13T21:34:18.038Z,1.70
2022-11-13T21:37:20.952Z,2.30
2022-11-13T21:40:25.773Z,1.83
2022-11-13T21:43:29.838Z,1.73
2022-11-13T21:46:33.727Z,1.80
2022-11-13T21:49:36.126Z,2.43
2022-11-13T21:52:38.069Z,1.67
2022-11-13T21:55:40.021Z,1.47
2022-11-13T21:58:42.156Z,1.50
2022-11-13T22:01:44.496Z,1.47
2022-11-13T22:04:46.495Z,1.30
2022-11-13T22:07:48.720Z,1.30
2022-11-13T22:10:50.664Z,1.57
2022-11-13T22:13:53.737Z,1.80
2022-11-13T22:16:55.596Z,1.50
2022-11-13T22:19:57.545Z,1.60
2022-11-13T22:22:59.390Z,1.33
2022-11-13T22:26:03.362Z,1.70
2022-11-13T22:29:05.221Z,1.47
2022-11-13T22:32:07.106Z,2.10
2022-11-13T22:35:09.429Z,1.50
2022-11-13T22:38:12.740Z,1.50
2022-11-13T22:41:23.195Z,1.97
2022-11-13T22:44:45.392Z,3.27
2022-11-13T22:47:48.140Z,2.17
2022-11-13T22:50:50.104Z,1.97
2022-11-13T22:53:54.423Z,2.07
2022-11-13T22:56:59.335Z,1.80
2022-11-13T23:00:01.156Z,1.80
2022-11-13T23:03:03.842Z,1.70
2022-11-13T23:06:06.640Z,2.03
2022-11-13T23:09:09.196Z,1.83
2022-11-13T23:12:11.155Z,1.90
2022-11-13T23:15:13.094Z,1.50
2022-11-13T23:18:14.987Z,2.17
2022-11-13T23:21:17.894Z,1.63
2022-11-13T23:24:19.874Z,1.70
2022-11-13T23:27:21.794Z,1.60
2022-11-13T23:30:23.671Z,1.47
2022-11-13T23:33:26.136Z,1.40
2022-11-13T23:36:28.488Z,1.50
2022-11-13T23:39:30.418Z,1.60
2022-11-13T23:42:54.177Z,1.50
2022-11-13T23:45:54.271Z,1.80
2022-11-13T23:48:56.481Z,1.73
2022-11-13T23:51:58.425Z,1.73
2022-11-13T23:55:00.554Z,2.10
2022-11-13T23:58:04.660Z,1.43
